createdAt,value
2023-02-18T00:01:56.829Z,3.65
2023-02-18T00:04:24.934Z,4.18
2023-02-18T00:06:53.377Z,3.80
2023-02-18T00:09:21.428Z,4.05
2023-02-18T00:11:51.207Z,4.00
2023-02-18T00:14:19.774Z,4.40
2023-02-18T00:16:47.949Z,4.45
2023-02-18T00:19:18.241Z,4.95
2023-02-18T00:21:46.684Z,4.68
2023-02-18T00:24:16.965Z,4.30
2023-02-18T00:26:45.680Z,4.72
2023-02-18T00:29:15.095Z,3.80
2023-02-18T00:31:43.073Z,3.72
2023-02-18T00:34:12.115Z,4.13
2023-02-18T00:36:40.331Z,4.47
2023-02-18T00:39:10.480Z,3.70
2023-02-18T00:41:39.642Z,3.53
2023-02-18T00:44:10.038Z,3.38
2023-02-18T00:46:43.328Z,3.65
2023-02-18T00:49:13.699Z,3.30
2023-02-18T00:51:45.208Z,3.85
2023-02-18T00:54:13.439Z,3.80
2023-02-18T00:56:43.071Z,3.80
2023-02-18T00:59:16.391Z,3.30
2023-02-18T01:01:46.405Z,3.13
2023-02-18T01:04:14.793Z,2.85
2023-02-18T01:06:43.336Z,3.17
2023-02-18T01:09:13.192Z,3.40
2023-02-18T01:11:41.127Z,3.40
2023-02-18T01:14:09.132Z,3.38
2023-02-18T01:16:37.104Z,3.28
2023-02-18T01:19:06.464Z,2.97
2023-02-18T01:21:34.476Z,3.03
2023-02-18T01:24:05.099Z,2.90
2023-02-18T01:26:33.158Z,3.35
2023-02-18T01:29:01.169Z,2.80
2023-02-18T01:31:30.750Z,3.20
2023-02-18T01:33:58.748Z,3.25
2023-02-18T01:36:28.089Z,2.70
2023-02-18T01:38:56.072Z,2.85
2023-02-18T01:41:24.203Z,2.75
2023-02-18T01:44:11.898Z,2.97
2023-02-18T01:46:39.964Z,3.58
2023-02-18T01:49:08.689Z,3.00
2023-02-18T01:51:42.654Z,2.92
2023-02-18T01:54:17.218Z,2.80
2023-02-18T01:56:49.736Z,2.67
2023-02-18T02:01:50.067Z,3.22
2023-02-18T02:04:20.304Z,2.70
2023-02-18T02:06:50.200Z,2.35
2023-02-18T02:09:20.508Z,2.80
2023-02-18T02:12:22.966Z,2.38
2023-02-18T02:15:42.088Z,2.10
2023-02-18T02:18:37.184Z,2.10
2023-02-18T02:21:27.953Z,2.05
2023-02-18T02:24:28.463Z,2.10
2023-02-18T02:27:14.316Z,2.60
2023-02-18T02:30:31.104Z,2.53
2023-02-18T02:33:53.373Z,2.58
2023-02-18T02:36:27.080Z,3.40
2023-02-18T02:39:01.510Z,2.45
2023-02-18T02:41:40.641Z,2.22
2023-02-18T02:44:23.323Z,2.97
2023-02-18T02:49:31.718Z,2.33
2023-02-18T02:52:06.735Z,2.80
2023-02-18T02:54:34.755Z,2.53
2023-02-18T02:57:30.914Z,2.42
2023-02-18T03:00:02.606Z,2.03
2023-02-18T03:02:47.031Z,1.83
2023-02-18T03:05:23.140Z,2.13
2023-02-18T03:08:11.228Z,2.28
2023-02-18T03:10:53.802Z,1.60
2023-02-18T03:13:34.273Z,1.70
2023-02-18T03:16:12.883Z,1.55
2023-02-18T03:18:44.695Z,2.13
2023-02-18T03:21:17.651Z,1.48
2023-02-18T03:23:54.791Z,2.00
2023-02-18T03:26:24.288Z,1.80
2023-02-18T03:28:54.064Z,1.92
2023-02-18T03:31:25.760Z,1.80
2023-02-18T03:33:57.916Z,1.95
2023-02-18T03:36:26.908Z,2.35
2023-02-18T03:39:00.850Z,2.90
2023-02-18T03:41:28.953Z,2.22
2023-02-18T03:44:02.703Z,2.15
2023-02-18T03:46:32.563Z,2.40
2023-02-18T03:49:00.575Z,2.70
2023-02-18T03:51:28.726Z,2.75
2023-02-18T03:53:58.020Z,2.97
2023-02-18T03:56:26.569Z,3.10
2023-02-18T03:58:54.427Z,3.63
2023-02-18T04:01:22.610Z,3.45
2023-02-18T04:03:50.622Z,4.10
2023-02-18T04:06:18.598Z,3.47
2023-02-18T04:08:48.961Z,4.50
2023-02-18T04:11:18.415Z,3.55
2023-02-18T04:13:49.436Z,3.65
2023-02-18T04:16:17.803Z,3.60
2023-02-18T04:18:46.093Z,3.55
2023-02-18T04:21:15.118Z,3.70
2023-02-18T04:23:43.514Z,4.07
2023-02-18T04:26:14.305Z,3.90
2023-02-18T04:28:44.303Z,3.08
2023-02-18T04:31:14.832Z,3.75
2023-02-18T04:33:43.378Z,3.45
2023-02-18T04:36:11.920Z,4.10
2023-02-18T04:38:42.111Z,4.63
2023-02-18T04:41:13.909Z,4.35
2023-02-18T04:43:44.981Z,4.63
2023-02-18T04:46:15.537Z,3.78
2023-02-18T04:48:43.776Z,4.00
2023-02-18T04:51:16.621Z,5.13
2023-02-18T04:53:48.207Z,5.25
2023-02-18T04:56:18.375Z,4.23
2023-02-18T04:58:48.447Z,4.80
2023-02-18T05:01:16.742Z,4.80
2023-02-18T05:03:48.339Z,4.88
2023-02-18T05:06:16.924Z,4.60
2023-02-18T05:08:45.216Z,4.32
2023-02-18T05:11:15.760Z,4.25
2023-02-18T05:13:48.617Z,4.30
2023-02-18T05:16:17.094Z,5.22
2023-02-18T05:18:45.749Z,4.78
2023-02-18T05:21:14.102Z,3.92
2023-02-18T05:23:43.611Z,4.85
2023-02-18T05:26:11.899Z,4.55
2023-02-18T05:28:40.325Z,4.65
2023-02-18T05:31:13.409Z,4.63
2023-02-18T05:33:45.257Z,5.15
2023-02-18T05:36:17.429Z,4.35
2023-02-18T05:38:48.060Z,4.35
2023-02-18T05:41:20.667Z,4.82
2023-02-18T05:44:09.787Z,4.20
2023-02-18T05:46:39.629Z,4.65
2023-02-18T05:49:08.592Z,4.57
2023-02-18T05:51:39.132Z,4.93
2023-02-18T05:54:09.315Z,5.03
2023-02-18T05:56:37.749Z,5.05
2023-02-18T05:59:06.200Z,4.30
2023-02-18T06:01:34.700Z,4.68
2023-02-18T06:04:04.733Z,4.60
2023-02-18T06:06:36.440Z,4.00
2023-02-18T06:09:04.892Z,4.20
2023-02-18T06:11:41.583Z,5.22
2023-02-18T06:14:10.237Z,4.97
2023-02-18T06:16:38.608Z,4.68
2023-02-18T06:19:10.693Z,4.75
2023-02-18T06:21:39.064Z,4.90
2023-02-18T06:24:08.126Z,5.30
2023-02-18T06:26:38.356Z,4.78
2023-02-18T06:29:12.686Z,5.47
2023-02-18T06:31:41.188Z,5.30
2023-02-18T06:34:14.523Z,4.75
2023-02-18T06:36:48.358Z,5.38
2023-02-18T06:39:20.474Z,5.15
2023-02-18T06:41:48.876Z,5.45
2023-02-18T06:44:18.528Z,5.45
2023-02-18T06:46:47.144Z,5.30
2023-02-18T06:49:17.394Z,5.25
2023-02-18T06:51:45.735Z,4.65
2023-02-18T06:54:14.202Z,5.57
2023-02-18T06:56:46.574Z,5.50
2023-02-18T06:59:15.080Z,5.03
2023-02-18T07:01:43.443Z,4.88
2023-02-18T07:04:11.855Z,5.43
2023-02-18T07:06:41.781Z,5.00
2023-02-18T07:09:10.701Z,6.18
2023-02-18T07:11:39.560Z,5.95
2023-02-18T07:14:23.646Z,6.28
2023-02-18T07:16:53.591Z,5.40
2023-02-18T07:19:24.985Z,5.30
2023-02-18T07:21:54.442Z,6.45
2023-02-18T07:24:22.394Z,5.25
2023-02-18T07:26:50.373Z,6.45
2023-02-18T07:29:18.647Z,6.25
2023-02-18T07:31:46.844Z,6.35
2023-02-18T07:34:14.873Z,6.20
2023-02-18T07:36:43.859Z,5.85
2023-02-18T07:39:13.074Z,6.25
2023-02-18T07:41:41.466Z,5.45
2023-02-18T07:44:09.420Z,6.22
2023-02-18T07:46:40.784Z,6.05
2023-02-18T07:49:08.831Z,6.05
2023-02-18T07:51:38.581Z,6.38
2023-02-18T07:54:06.601Z,5.93
2023-02-18T07:56:36.039Z,5.30
2023-02-18T07:59:04.060Z,6.10
2023-02-18T08:01:31.889Z,5.82
2023-02-18T08:04:00.601Z,6.00
2023-02-18T08:06:32.502Z,6.38
2023-02-18T08:09:00.416Z,5.45
2023-02-18T08:11:28.470Z,5.95
2023-02-18T08:13:57.809Z,6.30
2023-02-18T08:16:26.548Z,5.60
2023-02-18T08:18:56.898Z,5.38
2023-02-18T08:21:27.059Z,5.97
2023-02-18T08:23:55.429Z,5.93
2023-02-18T08:26:23.357Z,6.13
2023-02-18T08:28:51.349Z,5.38
2023-02-18T08:31:23.538Z,5.68
2023-02-18T08:33:54.774Z,5.00
2023-02-18T08:36:23.354Z,6.18
2023-02-18T08:38:51.373Z,6.53
2023-02-18T08:41:19.793Z,5.45
2023-02-18T08:43:48.098Z,5.50
2023-02-18T08:46:25.147Z,5.45
2023-02-18T08:49:02.544Z,6.68
2023-02-18T08:51:31.388Z,5.75
2023-02-18T08:53:59.504Z,5.35
2023-02-18T08:56:28.461Z,5.75
2023-02-18T08:59:00.030Z,5.47
2023-02-18T09:01:28.249Z,5.67
2023-02-18T09:03:56.848Z,5.68
2023-02-18T09:06:26.417Z,5.47
2023-02-18T09:08:54.791Z,5.30
2023-02-18T09:11:23.369Z,4.80
2023-02-18T09:13:51.248Z,5.10
2023-02-18T09:16:20.199Z,5.50
2023-02-18T09:18:50.916Z,6.07
2023-02-18T09:21:20.947Z,5.97
2023-02-18T09:23:51.083Z,5.75
2023-02-18T09:26:23.212Z,5.93
2023-02-18T09:28:52.762Z,6.30
2023-02-18T09:31:23.518Z,6.75
2023-02-18T09:33:53.918Z,6.65
2023-02-18T09:36:22.115Z,6.30
2023-02-18T09:38:52.517Z,6.78
2023-02-18T09:41:32.526Z,6.13
2023-02-18T09:44:04.062Z,5.95
2023-02-18T09:46:40.716Z,6.07
2023-02-18T09:49:16.176Z,5.72
2023-02-18T09:51:44.680Z,6.07
2023-02-18T09:54:20.113Z,6.65
2023-02-18T09:56:49.696Z,5.43
2023-02-18T09:59:19.781Z,5.97
2023-02-18T10:01:53.123Z,5.97
2023-02-18T10:04:24.313Z,5.93
2023-02-18T10:06:53.757Z,6.15
2023-02-18T10:09:26.386Z,5.88
2023-02-18T10:11:58.321Z,6.47
2023-02-18T10:14:27.592Z,5.68
2023-02-18T10:16:55.924Z,6.03
2023-02-18T10:19:29.572Z,5.78
2023-02-18T10:21:58.513Z,5.90
2023-02-18T10:24:35.808Z,6.05
2023-02-18T10:27:07.008Z,6.25
2023-02-18T10:29:35.895Z,6.53
2023-02-18T10:32:12.916Z,5.68
2023-02-18T10:34:43.219Z,6.57
2023-02-18T10:37:28.229Z,6.07
2023-02-18T10:40:07.798Z,5.82
2023-02-18T10:42:49.141Z,6.85
2023-02-18T10:45:30.129Z,6.13
2023-02-18T10:48:23.996Z,5.03
2023-02-18T10:50:52.345Z,5.88
2023-02-18T10:53:27.079Z,6.25
2023-02-18T10:55:56.973Z,6.30
2023-02-18T10:58:43.911Z,6.18
2023-02-18T11:01:16.798Z,5.75
2023-02-18T11:03:46.564Z,7.32
2023-02-18T11:06:22.557Z,6.82
2023-02-18T11:08:51.442Z,6.53
2023-02-18T11:11:25.960Z,7.38
2023-02-18T11:13:55.868Z,6.85
2023-02-18T11:16:25.050Z,6.85
2023-02-18T11:18:53.060Z,7.13
2023-02-18T11:21:27.424Z,7.53
2023-02-18T11:23:57.039Z,7.40
2023-02-18T11:26:31.682Z,7.43
2023-02-18T11:29:03.974Z,6.40
2023-02-18T11:31:41.820Z,6.45
2023-02-18T11:34:17.821Z,6.22
2023-02-18T11:36:47.216Z,5.28
2023-02-18T11:39:20.880Z,5.47
2023-02-18T11:41:55.885Z,4.65
2023-02-18T11:44:30.998Z,5.55
2023-02-18T11:47:02.566Z,5.63
2023-02-18T11:49:33.973Z,5.03
2023-02-18T11:52:15.484Z,4.43
2023-02-18T11:54:43.842Z,5.57
2023-02-18T11:57:15.528Z,5.13
2023-02-18T11:59:44.480Z,5.10
2023-02-18T12:02:29.120Z,4.53
2023-02-18T12:05:02.739Z,4.60
2023-02-18T12:07:43.517Z,4.20
2023-02-18T12:10:16.321Z,4.40
2023-02-18T12:12:51.438Z,4.35
2023-02-18T12:15:25.491Z,4.57
2023-02-18T12:18:16.253Z,4.50
2023-02-18T12:21:12.801Z,4.10
2023-02-18T12:23:52.442Z,4.18
2023-02-18T12:26:28.808Z,3.63
2023-02-18T12:29:18.606Z,3.47
2023-02-18T12:32:03.042Z,3.65
2023-02-18T12:34:44.514Z,3.97
2023-02-18T12:37:45.443Z,3.58
2023-02-18T12:40:39.840Z,3.22
2023-02-18T12:43:16.769Z,3.03
2023-02-18T12:45:59.214Z,3.28
2023-02-18T12:48:50.304Z,3.83
2023-02-18T12:51:36.361Z,2.97
2023-02-18T12:54:32.661Z,3.63
2023-02-18T12:57:10.758Z,3.30
2023-02-18T13:00:03.847Z,3.42
2023-02-18T13:03:00.308Z,3.42
2023-02-18T13:05:35.646Z,3.05
2023-02-18T13:08:18.540Z,2.65
2023-02-18T13:10:57.856Z,3.65
2023-02-18T13:13:35.568Z,3.40
2023-02-18T13:16:06.921Z,3.15
2023-02-18T13:18:39.615Z,3.05
2023-02-18T13:21:10.629Z,2.85
2023-02-18T13:23:44.148Z,2.92
2023-02-18T13:26:15.273Z,3.40
2023-02-18T13:28:49.860Z,2.63
2023-02-18T13:31:28.803Z,3.25
2023-02-18T13:34:07.420Z,3.45
2023-02-18T13:37:02.913Z,3.38
2023-02-18T13:39:32.412Z,2.80
2023-02-18T13:42:28.606Z,2.95
2023-02-18T13:45:31.142Z,3.05
2023-02-18T13:48:00.270Z,2.92
2023-02-18T13:50:41.669Z,3.47
2023-02-18T13:53:22.095Z,3.35
2023-02-18T13:55:57.709Z,2.85
2023-02-18T13:58:33.032Z,2.90
2023-02-18T14:01:05.229Z,3.17
2023-02-18T14:03:53.081Z,3.60
2023-02-18T14:06:24.564Z,2.58
2023-02-18T14:09:03.309Z,2.90
2023-02-18T14:11:49.325Z,2.63
2023-02-18T14:14:39.740Z,2.78
2023-02-18T14:17:32.796Z,3.05
2023-02-18T14:20:45.159Z,3.58
2023-02-18T14:23:59.871Z,2.37
2023-02-18T14:26:47.716Z,2.80
2023-02-18T14:29:27.746Z,2.28
2023-02-18T14:32:01.167Z,2.63
2023-02-18T14:35:05.914Z,2.63
2023-02-18T14:38:08.894Z,3.13
2023-02-18T14:40:52.806Z,3.08
2023-02-18T14:43:35.405Z,2.90
2023-02-18T14:48:57.446Z,2.67
2023-02-18T14:51:28.133Z,2.88
2023-02-18T14:53:59.482Z,2.40
2023-02-18T14:56:29.003Z,2.33
2023-02-18T14:59:01.609Z,3.03
2023-02-18T15:01:31.230Z,2.25
2023-02-18T15:03:59.332Z,3.13
2023-02-18T15:06:31.760Z,2.53
2023-02-18T15:11:40.314Z,2.65
2023-02-18T15:14:16.434Z,2.67
2023-02-18T15:16:46.498Z,3.10
2023-02-18T15:19:18.126Z,2.90
2023-02-18T15:21:48.372Z,2.77
2023-02-18T15:24:26.110Z,2.80
2023-02-18T15:26:58.115Z,2.83
2023-02-18T15:29:28.068Z,2.60
2023-02-18T15:31:58.635Z,2.42
2023-02-18T15:34:33.867Z,3.00
2023-02-18T15:37:04.791Z,3.08
2023-02-18T15:39:33.509Z,3.13
2023-02-18T15:42:09.243Z,3.42
2023-02-18T15:44:38.353Z,2.95
2023-02-18T15:47:09.359Z,3.25
2023-02-18T15:49:40.027Z,3.67
2023-02-18T15:52:09.792Z,3.45
2023-02-18T15:54:40.475Z,3.10
2023-02-18T15:57:14.391Z,3.05
2023-02-18T15:59:47.126Z,3.97
2023-02-18T16:02:20.363Z,3.17
2023-02-18T16:04:53.724Z,3.67
2023-02-18T16:07:25.712Z,3.50
2023-02-18T16:10:11.224Z,4.03
2023-02-18T16:12:41.083Z,3.78
2023-02-18T16:15:15.834Z,3.42
2023-02-18T16:17:45.893Z,3.40
2023-02-18T16:20:24.625Z,4.13
2023-02-18T16:22:54.001Z,3.40
2023-02-18T16:25:25.468Z,3.65
2023-02-18T16:28:08.725Z,3.47
2023-02-18T16:30:37.444Z,3.67
2023-02-18T16:33:05.411Z,4.07
2023-02-18T16:35:48.754Z,4.28
2023-02-18T16:38:19.428Z,3.78
2023-02-18T16:40:47.612Z,3.85
2023-02-18T16:43:18.943Z,3.70
2023-02-18T16:45:49.935Z,4.32
2023-02-18T16:48:22.429Z,3.55
2023-02-18T16:50:52.111Z,4.43
2023-02-18T16:53:20.995Z,4.60
2023-02-18T16:55:50.815Z,4.15
2023-02-18T16:58:21.499Z,4.50
2023-02-18T17:00:52.266Z,4.40
2023-02-18T17:03:20.913Z,4.47
2023-02-18T17:05:48.913Z,4.70
2023-02-18T17:08:20.401Z,4.15
2023-02-18T17:10:51.292Z,4.97
2023-02-18T17:13:22.637Z,4.55
2023-02-18T17:15:52.866Z,4.53
2023-02-18T17:18:21.236Z,4.35
2023-02-18T17:20:49.927Z,4.60
2023-02-18T17:23:31.337Z,5.30
2023-02-18T17:26:00.192Z,5.85
2023-02-18T17:28:29.629Z,4.55
2023-02-18T17:31:05.400Z,4.90
2023-02-18T17:33:33.253Z,4.72
2023-02-18T17:36:02.507Z,4.32
2023-02-18T17:38:30.489Z,4.70
2023-02-18T17:40:58.384Z,4.65
2023-02-18T17:43:28.666Z,4.75
2023-02-18T17:45:58.801Z,5.28
2023-02-18T17:48:28.246Z,4.45
2023-02-18T17:50:56.499Z,4.40
2023-02-18T17:53:24.953Z,5.00
2023-02-18T17:55:53.296Z,4.88
2023-02-18T17:58:21.245Z,4.38
2023-02-18T18:00:52.635Z,4.60
2023-02-18T18:03:20.861Z,5.78
2023-02-18T18:05:52.017Z,5.35
2023-02-18T18:08:20.318Z,5.55
2023-02-18T18:10:50.987Z,6.03
2023-02-18T18:13:22.391Z,4.65
2023-02-18T18:15:52.444Z,5.25
2023-02-18T18:18:21.152Z,5.22
2023-02-18T18:20:52.668Z,4.55
2023-02-18T18:23:22.100Z,6.13
2023-02-18T18:25:54.827Z,4.93
2023-02-18T18:28:23.477Z,5.05
2023-02-18T18:30:55.180Z,5.40
2023-02-18T18:33:24.952Z,5.70
2023-02-18T18:35:54.654Z,4.90
2023-02-18T18:38:24.391Z,4.43
2023-02-18T18:40:53.611Z,5.47
2023-02-18T18:43:23.564Z,4.85
2023-02-18T18:45:54.001Z,4.72
2023-02-18T18:48:22.841Z,4.88
2023-02-18T18:50:52.718Z,5.05
2023-02-18T18:53:24.589Z,5.47
2023-02-18T18:55:54.694Z,4.32
2023-02-18T18:58:25.778Z,4.68
2023-02-18T19:00:57.651Z,4.85
2023-02-18T19:03:28.631Z,5.05
2023-02-18T19:05:57.945Z,4.82
2023-02-18T19:08:31.274Z,4.43
2023-02-18T19:11:04.468Z,4.45
2023-02-18T19:13:39.223Z,4.80
2023-02-18T19:16:19.307Z,5.50
2023-02-18T19:18:50.561Z,5.05
2023-02-18T19:21:19.286Z,4.85
2023-02-18T19:23:53.521Z,4.45
2023-02-18T19:26:24.368Z,5.07
2023-02-18T19:28:52.888Z,5.18
2023-02-18T19:31:31.664Z,4.85
2023-02-18T19:34:00.422Z,5.65
2023-02-18T19:36:36.659Z,4.93
2023-02-18T19:39:08.781Z,5.07
2023-02-18T19:41:37.674Z,5.38
2023-02-18T19:44:06.542Z,5.38
2023-02-18T19:46:36.687Z,5.28
2023-02-18T19:49:05.229Z,5.35
2023-02-18T19:51:36.566Z,5.07
2023-02-18T19:54:07.993Z,5.82
2023-02-18T19:56:36.695Z,5.95
2023-02-18T19:59:09.312Z,4.95
2023-02-18T20:04:13.255Z,5.50
2023-02-18T20:06:43.926Z,5.38
2023-02-18T20:09:12.980Z,5.13
2023-02-18T20:11:47.922Z,4.95
2023-02-18T20:14:19.586Z,5.10
2023-02-18T20:16:49.416Z,4.50
2023-02-18T20:19:17.707Z,4.45
2023-02-18T20:21:45.967Z,5.30
2023-02-18T20:24:17.344Z,5.03
2023-02-18T20:26:46.032Z,4.38
2023-02-18T20:29:16.901Z,4.63
2023-02-18T20:31:48.176Z,4.40
2023-02-18T20:34:18.450Z,5.15
2023-02-18T20:36:47.208Z,4.28
2023-02-18T20:39:17.706Z,4.47
2023-02-18T20:41:46.611Z,4.28
2023-02-18T20:44:18.488Z,4.50
2023-02-18T20:46:49.798Z,3.20
2023-02-18T20:49:23.982Z,4.38
2023-02-18T20:51:52.516Z,4.88
2023-02-18T20:54:21.444Z,6.13
2023-02-18T20:56:51.738Z,4.30
2023-02-18T20:59:23.524Z,3.95
2023-02-18T21:01:55.070Z,3.97
2023-02-18T21:04:24.985Z,4.10
2023-02-18T21:06:54.474Z,3.85
2023-02-18T21:09:23.346Z,4.35
2023-02-18T21:11:55.031Z,4.40
2023-02-18T21:14:25.370Z,4.70
2023-02-18T21:16:53.850Z,4.03
2023-02-18T21:19:22.240Z,4.43
2023-02-18T21:21:54.713Z,4.35
2023-02-18T21:26:53.307Z,3.83
2023-02-18T21:29:21.782Z,4.22
2023-02-18T21:31:50.699Z,3.67
2023-02-18T21:34:21.280Z,4.03
2023-02-18T21:36:51.241Z,3.97
2023-02-18T21:39:19.735Z,4.50
2023-02-18T21:41:48.348Z,4.10
2023-02-18T21:44:17.039Z,4.75
2023-02-18T21:46:48.014Z,3.83
2023-02-18T21:49:18.753Z,3.95
2023-02-18T21:52:00.588Z,4.45
2023-02-18T21:54:32.436Z,4.40
2023-02-18T21:57:03.888Z,4.60
2023-02-18T21:59:33.225Z,5.05
2023-02-18T22:02:20.504Z,4.55
2023-02-18T22:04:53.350Z,4.97
2023-02-18T22:07:24.973Z,5.60
2023-02-18T22:09:55.134Z,5.17
2023-02-18T22:12:25.534Z,4.95
2023-02-18T22:14:54.348Z,4.88
2023-02-18T22:17:22.898Z,5.15
2023-02-18T22:19:51.577Z,5.35
2023-02-18T22:22:22.260Z,4.95
2023-02-18T22:24:52.235Z,5.22
2023-02-18T22:27:24.332Z,5.15
2023-02-18T22:30:01.687Z,5.45
2023-02-18T22:32:33.052Z,5.30
2023-02-18T22:35:01.976Z,5.43
2023-02-18T22:37:32.039Z,4.97
2023-02-18T22:40:02.459Z,5.60
2023-02-18T22:42:43.031Z,4.57
2023-02-18T22:45:11.489Z,5.47
2023-02-18T22:47:40.096Z,5.55
2023-02-18T22:50:09.705Z,4.68
2023-02-18T22:52:38.325Z,5.35
2023-02-18T22:55:09.419Z,5.47
2023-02-18T22:57:39.541Z,4.55
2023-02-18T23:00:13.798Z,5.07
2023-02-18T23:02:42.338Z,5.68
2023-02-18T23:05:11.084Z,5.18
2023-02-18T23:07:40.283Z,4.63
2023-02-18T23:10:14.707Z,4.78
2023-02-18T23:12:51.092Z,5.18
2023-02-18T23:15:19.278Z,5.28
2023-02-18T23:17:49.924Z,5.00
2023-02-18T23:20:38.736Z,5.53
2023-02-18T23:23:06.755Z,4.97
2023-02-18T23:25:34.969Z,4.75
2023-02-18T23:28:04.641Z,5.00
2023-02-18T23:30:32.946Z,4.22
2023-02-18T23:33:01.101Z,4.07
2023-02-18T23:35:29.064Z,4.93
2023-02-18T23:38:06.130Z,4.32
2023-02-18T23:40:35.372Z,3.85
2023-02-18T23:43:04.703Z,3.85
2023-02-18T23:45:32.618Z,3.80
2023-02-18T23:48:00.627Z,3.28
2023-02-18T23:50:28.636Z,3.67
2023-02-18T23:52:57.127Z,4.18
2023-02-18T23:55:25.059Z,4.15
2023-02-18T23:57:53.150Z,3.67
